Midnight Wolf — HO7969 — position and weather

sailwx.info

Track history (hours):
 
Tides and Currents Weather Stations Pressure Air Temp Water Temp Dewpoint Dewpoint Depression Visibility Wind Speed Wind Dir Waves Ship Positions

Midnight Wolf

Last reported at 2014-Oct-21 00:31 UTC. Time now 2014-Oct-21 00:44 UTC.
Position N 18°05' W 063°06'.

Length 51 m; draft 3 m.

Type: Cargo ship. MMSI: 351880000.

Date/timePositionNaut miles runAvg speedWind from/ knotsBaromVisibWave heightAir tempDewpointWater temp
2014-Oct-21 00:31N 18°05' W 063°06'7 6.2
2014-Oct-20 23:25N 18°12' W 063°08'1 0.2
2014-Oct-20 20:20N 18°12' W 063°09'7 8.7
2014-Oct-20 19:32N 18°12' W 063°16'8 8.5
2014-Oct-20 18:32N 18°13' W 063°25'  
2014-Oct-16 03:33N 17°52' W 063°24'9 8.9
2014-Oct-16 02:32N 17°58' W 063°17'9 8.9
2014-Oct-16 01:33N 18°04' W 063°10'5 4.7
2014-Oct-16 00:33N 18°05' W 063°05'0 0.0
2014-Oct-15 23:33N 18°05' W 063°05'0 0.0
2014-Oct-15 22:33N 18°05' W 063°05'0 0.4
2014-Oct-15 21:32N 18°05' W 063°05'0 0.0
2014-Oct-15 20:32N 18°05' W 063°05'  
Track history (hours):
 
Tides and Currents Weather Stations Pressure Air Temp Water Temp Dewpoint Dewpoint Depression Visibility Wind Speed Wind Dir Waves Ship Positions

Midnight Wolf

Last reported at 2014-Oct-21 00:31 UTC. Time now 2014-Oct-21 00:44 UTC.
Position N 18°05' W 063°06'.

Length 51 m; draft 3 m.

Type: Cargo ship. MMSI: 351880000.

Date/timePositionNaut miles runAvg speedWind from/ knotsBaromVisibWave heightAir tempDewpointWater temp
2014-Oct-21 00:31N 18°05' W 063°06'7 6.2
2014-Oct-20 23:25N 18°12' W 063°08'1 0.2
2014-Oct-20 20:20N 18°12' W 063°09'7 8.7
2014-Oct-20 19:32N 18°12' W 063°16'8 8.5
2014-Oct-20 18:32N 18°13' W 063°25'  
2014-Oct-16 03:33N 17°52' W 063°24'9 8.9
2014-Oct-16 02:32N 17°58' W 063°17'9 8.9
2014-Oct-16 01:33N 18°04' W 063°10'5 4.7
2014-Oct-16 00:33N 18°05' W 063°05'0 0.0
2014-Oct-15 23:33N 18°05' W 063°05'0 0.0
2014-Oct-15 22:33N 18°05' W 063°05'0 0.4
2014-Oct-15 21:32N 18°05' W 063°05'0 0.0
2014-Oct-15 20:32N 18°05' W 063°05'  

Dump ship's entire track history